Time;durP1;ratioP1;P1;durP2;ratioP2;P2;SDS_P1;SDS_P2;PMS_P1;PMS_P2;Temp;Humidity;BMP_temperature;BMP_pressure;BME280_temperature;BME280_humidity;BME280_pressure;Samples;Min_cycle;Max_cycle;Signal;HPM_P1;HPM_P2
2022/12/11 00:00:50;;;;;;;22.23;17.50;;;0.30;99.90;;;;;;5121477;28;20184;-46
2022/12/11 00:03:16;;;;;;;21.40;18.20;;;0.30;99.90;;;;;;5120644;28;20550;-44
2022/12/11 00:05:43;;;;;;;23.13;18.50;;;0.30;99.90;;;;;;5119822;28;20187;-45
2022/12/11 00:08:09;;;;;;;23.30;18.80;;;0.20;97.20;;;;;;5120521;28;20570;-45
2022/12/11 00:10:35;;;;;;;21.80;17.03;;;0.20;91.50;;;;;;5120411;28;20577;-44
2022/12/11 00:13:02;;;;;;;23.13;17.30;;;0.20;97.30;;;;;;5118593;28;20310;-45
2022/12/11 00:15:31;;;;;;;21.97;17.60;;;0.10;82.50;;;;;;5101656;28;20421;-44
2022/12/11 00:17:56;;;;;;;23.90;17.70;;;0.10;48.90;;;;;;5120151;28;20441;-44
2022/12/11 00:20:22;;;;;;;21.20;17.20;;;0.10;41.40;;;;;;5120064;28;20520;-45
2022/12/11 00:22:47;;;;;;;22.40;17.10;;;0.10;29.80;;;;;;5119993;28;20183;-43
2022/12/11 00:25:13;;;;;;;24.20;18.37;;;0.00;22.00;;;;;;5119348;28;20179;-45
2022/12/11 00:27:39;;;;;;;22.63;18.07;;;0.00;12.60;;;;;;5119775;28;20277;-51
2022/12/11 00:30:05;;;;;;;23.00;17.90;;;0.00;5.60;;;;;;5119834;28;20190;-45
2022/12/11 00:32:31;;;;;;;20.80;16.37;;;0.00;1.00;;;;;;5101452;28;20195;-45
2022/12/11 00:34:57;;;;;;;23.17;17.90;;;0.00;1.00;;;;;;5118869;28;20410;-43
2022/12/11 00:37:22;;;;;;;23.50;17.20;;;-0.10;1.00;;;;;;5101369;28;20171;-43
2022/12/11 00:39:48;;;;;;;21.63;17.57;;;-0.10;1.00;;;;;;5117162;28;20164;-44
2022/12/11 00:42:15;;;;;;;25.13;19.50;;;-0.10;1.00;;;;;;5116126;28;20172;-44
2022/12/11 00:44:41;;;;;;;23.20;17.80;;;-0.10;1.00;;;;;;5109694;28;20472;-43
2022/12/11 00:47:07;;;;;;;24.07;19.30;;;-0.20;1.00;;;;;;5097837;28;20417;-46
2022/12/11 00:49:32;;;;;;;23.27;17.93;;;-0.20;1.00;;;;;;5106364;28;20447;-44
2022/12/11 00:51:58;;;;;;;23.90;18.07;;;-0.20;1.00;;;;;;5118901;28;20608;-45
2022/12/11 00:54:25;;;;;;;23.00;17.70;;;-0.20;1.00;;;;;;5119257;28;20180;-44
2022/12/11 00:56:50;;;;;;;19.80;17.20;;;-0.20;1.00;;;;;;5118887;28;20641;-43
2022/12/11 00:59:16;;;;;;;21.77;18.27;;;-0.20;1.00;;;;;;5100838;28;20513;-45
2022/12/11 01:01:42;;;;;;;23.87;17.47;;;-0.20;1.00;;;;;;5101347;28;20187;-45
2022/12/11 01:04:07;;;;;;;26.97;17.90;;;-0.20;19.10;;;;;;5119813;28;20224;-45
2022/12/11 01:06:33;;;;;;;21.60;17.20;;;-0.10;53.70;;;;;;5120686;28;20167;-43
2022/12/11 01:11:42;;;;;;;21.10;16.50;;;-0.10;99.90;;;;;;5119391;28;20254;-44
2022/12/11 01:14:10;;;;;;;27.37;18.67;;;0.00;99.90;;;;;;5120316;28;20472;-44
2022/12/11 01:16:36;;;;;;;21.87;17.73;;;0.00;99.90;;;;;;5120454;28;20171;-44
2022/12/11 01:19:02;;;;;;;24.63;18.10;;;0.00;99.90;;;;;;5119671;28;21024;-43
2022/12/11 01:21:28;;;;;;;22.43;18.10;;;0.10;99.90;;;;;;5118103;28;20758;-45
2022/12/11 01:23:54;;;;;;;22.13;17.70;;;0.10;1.00;;;;;;5118307;28;20441;-46
2022/12/11 01:26:20;;;;;;;22.83;18.30;;;0.10;1.00;;;;;;5098866;28;20176;-44
2022/12/11 01:28:49;;;;;;;22.80;17.10;;;0.10;1.00;;;;;;5115956;28;20418;-43
2022/12/11 01:31:16;;;;;;;23.57;17.60;;;0.20;1.00;;;;;;5117122;28;20577;-43
2022/12/11 01:33:42;;;;;;;20.00;16.20;;;0.20;1.00;;;;;;5081703;28;20452;-43
2022/12/11 01:36:09;;;;;;;19.90;16.00;;;0.20;1.00;;;;;;5117012;28;20498;-45
2022/12/11 01:38:35;;;;;;;22.03;17.40;;;0.30;1.00;;;;;;5118052;28;20425;-43
2022/12/11 01:41:02;;;;;;;18.90;14.97;;;0.30;1.00;;;;;;5117291;28;20433;-44
2022/12/11 01:43:27;;;;;;;22.33;16.67;;;0.30;1.00;;;;;;5099498;28;20422;-45
2022/12/11 01:45:53;;;;;;;20.20;15.57;;;0.30;1.00;;;;;;5118176;28;20428;-44
2022/12/11 01:48:24;;;;;;;20.27;15.50;;;0.40;1.00;;;;;;5100567;28;20279;-45
2022/12/11 01:50:57;;;;;;;21.40;16.83;;;0.40;1.00;;;;;;5101033;28;20617;-43
2022/12/11 01:53:28;;;;;;;19.90;16.10;;;0.40;1.00;;;;;;5100015;28;20798;-44
2022/12/11 01:55:56;;;;;;;20.77;15.37;;;0.40;1.00;;;;;;5101660;28;20519;-44
2022/12/11 01:58:26;;;;;;;20.00;16.10;;;0.50;24.30;;;;;;5101620;28;20424;-44
2022/12/11 02:00:52;;;;;;;20.50;16.90;;;0.50;54.80;;;;;;5119464;28;20425;-46
2022/12/11 02:03:18;;;;;;;17.90;14.43;;;0.50;99.70;;;;;;5100735;28;20426;-44
2022/12/11 02:05:43;;;;;;;20.43;16.60;;;0.60;99.90;;;;;;5118450;28;20476;-44
2022/12/11 02:08:09;;;;;;;19.80;15.93;;;0.60;99.90;;;;;;5119148;28;20183;-45
2022/12/11 02:11:16;;;;;;;23.33;17.03;;;0.70;99.90;;;;;;5118788;28;20208;-45
2022/12/11 02:13:50;;;;;;;18.83;15.27;;;0.70;99.90;;;;;;5115106;28;20829;-44
2022/12/11 02:16:24;;;;;;;21.70;16.47;;;0.70;99.90;;;;;;5098247;28;20425;-45
2022/12/11 02:19:00;;;;;;;21.03;16.50;;;0.70;99.90;;;;;;5117628;28;20908;-45
2022/12/11 02:21:31;;;;;;;18.60;15.40;;;0.80;99.90;;;;;;5100099;28;20983;-44
2022/12/11 02:24:03;;;;;;;21.03;16.80;;;0.80;99.90;;;;;;5101436;28;20684;-45
2022/12/11 02:27:09;;;;;;;20.30;15.90;;;0.80;99.90;;;;;;5119159;28;20514;-44
2022/12/11 02:29:53;;;;;;;22.40;16.30;;;0.80;99.90;;;;;;5014973;28;20434;-44
2022/12/11 02:32:30;;;;;;;20.67;16.23;;;0.90;99.90;;;;;;5015833;28;20515;-44
2022/12/11 02:35:10;;;;;;;20.13;16.83;;;0.90;99.90;;;;;;5082912;28;20436;-44
2022/12/11 02:37:38;;;;;;;21.90;16.10;;;0.90;99.90;;;;;;5109612;28;20430;-43
2022/12/11 02:40:07;;;;;;;19.47;16.27;;;0.90;99.90;;;;;;5079057;28;20504;-44
2022/12/11 02:42:35;;;;;;;19.53;15.40;;;0.90;99.90;;;;;;5078392;28;20419;-47
2022/12/11 02:45:00;;;;;;;18.87;16.23;;;1.00;99.90;;;;;;5079917;28;20403;-45
2022/12/11 02:47:27;;;;;;;18.47;14.90;;;1.00;99.90;;;;;;5098568;28;20569;-44
2022/12/11 02:49:53;;;;;;;18.57;14.60;;;1.00;99.90;;;;;;5097579;28;20168;-43
2022/12/11 02:52:21;;;;;;;18.87;15.50;;;1.00;99.90;;;;;;5116298;28;20430;-45
2022/12/11 02:54:47;;;;;;;18.47;14.93;;;1.00;99.90;;;;;;5117034;28;20417;-43
2022/12/11 02:57:24;;;;;;;19.13;14.70;;;1.00;99.90;;;;;;5099839;28;20491;-44
2022/12/11 02:59:50;;;;;;;21.27;15.63;;;1.00;99.90;;;;;;5100622;28;20413;-44
2022/12/11 03:02:16;;;;;;;17.90;14.73;;;1.00;99.90;;;;;;5118589;28;20486;-43
2022/12/11 03:04:44;;;;;;;18.53;15.00;;;1.00;99.90;;;;;;5118562;28;20177;-43
2022/12/11 03:07:12;;;;;;;16.80;14.53;;;1.00;99.90;;;;;;5117398;28;20180;-44
2022/12/11 03:09:43;;;;;;;18.17;14.90;;;1.00;99.90;;;;;;5099563;28;20409;-44
2022/12/11 03:12:12;;;;;;;21.40;15.33;;;1.00;99.90;;;;;;5098471;28;20921;-44
2022/12/11 03:14:39;;;;;;;16.80;14.07;;;1.00;99.90;;;;;;5112200;28;20881;-44
2022/12/11 03:17:18;;;;;;;15.80;13.20;;;0.90;99.90;;;;;;5115988;28;20444;-46
2022/12/11 03:19:54;;;;;;;18.47;14.23;;;0.90;99.90;;;;;;5115685;28;20422;-44
2022/12/11 03:22:36;;;;;;;16.20;12.33;;;0.90;99.90;;;;;;5110591;28;20705;-47
2022/12/11 03:25:09;;;;;;;16.03;12.00;;;0.80;99.90;;;;;;5098158;28;20819;-42
2022/12/11 03:27:54;;;;;;;16.67;12.93;;;0.80;96.20;;;;;;5096012;28;20426;-43
2022/12/11 03:30:20;;;;;;;15.00;12.77;;;0.80;76.90;;;;;;5111748;28;20460;-44
2022/12/11 03:32:57;;;;;;;16.20;13.03;;;0.80;80.90;;;;;;5117019;28;20427;-45
2022/12/11 03:35:26;;;;;;;14.97;12.13;;;0.80;90.10;;;;;;5117080;27;20397;-43
2022/12/11 03:37:53;;;;;;;15.43;12.40;;;0.80;95.50;;;;;;5114913;28;20440;-45
2022/12/11 03:40:20;;;;;;;15.70;11.30;;;0.80;97.20;;;;;;5114285;28;20474;-44
2022/12/11 03:42:52;;;;;;;16.80;14.10;;;0.80;99.40;;;;;;5114884;28;20460;-42
2022/12/11 03:45:19;;;;;;;16.97;12.77;;;0.80;98.00;;;;;;5094184;28;20414;-44
2022/12/11 03:47:46;;;;;;;16.33;12.33;;;0.80;90.10;;;;;;5095002;28;20391;-45
2022/12/11 03:50:15;;;;;;;15.17;12.43;;;0.80;74.00;;;;;;5095644;28;20410;-44
2022/12/11 03:52:42;;;;;;;14.30;11.80;;;0.80;51.70;;;;;;5095271;28;20473;-44
2022/12/11 03:55:08;;;;;;;16.00;11.97;;;0.80;27.10;;;;;;5096443;28;20403;-43
2022/12/11 03:57:35;;;;;;;15.37;12.50;;;0.80;16.60;;;;;;5096577;28;20430;-45
2022/12/11 04:00:06;;;;;;;14.60;11.50;;;0.80;9.90;;;;;;5095133;28;20402;-44
2022/12/11 04:02:31;;;;;;;14.40;11.80;;;0.80;3.30;;;;;;5096575;28;20427;-46
2022/12/11 04:04:57;;;;;;;15.80;13.53;;;0.80;1.20;;;;;;5114721;28;20783;-46
2022/12/11 04:07:23;;;;;;;14.47;11.83;;;0.80;6.00;;;;;;5114959;28;20180;-43
2022/12/11 04:09:48;;;;;;;12.93;11.20;;;0.80;6.70;;;;;;5116074;28;20172;-44
2022/12/11 04:12:14;;;;;;;14.17;12.40;;;0.80;9.40;;;;;;5114371;28;20231;-45
2022/12/11 04:25:38;;;;;;;14.00;12.13;;;0.90;1.00;;;;;;5115498;28;20444;-44
2022/12/11 04:28:03;;;;;;;16.30;12.53;;;0.90;1.00;;;;;;5116648;28;20417;-45
2022/12/11 04:30:29;;;;;;;13.30;11.80;;;0.90;1.00;;;;;;5116838;28;20188;-46
2022/12/11 04:32:54;;;;;;;14.80;12.17;;;0.90;1.00;;;;;;5116117;28;20592;-44
2022/12/11 04:35:22;;;;;;;14.47;12.30;;;0.90;1.00;;;;;;5116099;28;20307;-45
2022/12/11 04:37:49;;;;;;;15.63;12.20;;;0.90;1.00;;;;;;5116586;28;20183;-45
2022/12/11 04:40:17;;;;;;;15.03;12.20;;;0.90;1.00;;;;;;5116247;28;20409;-44
2022/12/11 04:42:43;;;;;;;12.60;11.13;;;1.00;1.00;;;;;;5116334;28;20436;-45
2022/12/11 04:45:09;;;;;;;13.13;11.10;;;0.90;1.00;;;;;;5120471;28;20421;-46
2022/12/11 04:47:36;;;;;;;14.47;12.00;;;0.90;1.00;;;;;;5113124;28;20169;-44
2022/12/11 04:50:03;;;;;;;14.30;11.60;;;0.90;1.00;;;;;;5117051;28;20421;-47
2022/12/11 04:52:29;;;;;;;13.63;11.80;;;1.00;1.00;;;;;;5113148;28;20429;-45
2022/12/11 04:54:55;;;;;;;14.17;11.70;;;1.00;1.00;;;;;;5119969;28;20490;-44
2022/12/11 04:57:20;;;;;;;13.23;11.60;;;1.00;1.00;;;;;;5119493;27;20418;-45
2022/12/11 04:59:46;;;;;;;15.10;12.20;;;1.00;1.00;;;;;;5119508;28;20176;-46
2022/12/11 05:02:12;;;;;;;15.33;11.97;;;1.00;1.00;;;;;;5120401;28;20183;-45
2022/12/11 05:04:38;;;;;;;13.50;11.40;;;1.00;1.00;;;;;;5120668;28;20787;-45
2022/12/11 05:07:04;;;;;;;15.30;12.33;;;1.00;1.00;;;;;;5120952;28;20570;-46
2022/12/11 05:09:29;;;;;;;15.60;12.90;;;1.00;1.00;;;;;;5121310;28;20176;-46
2022/12/11 05:11:55;;;;;;;17.47;13.13;;;1.00;1.00;;;;;;5120086;28;20212;-46
2022/12/11 05:14:21;;;;;;;16.10;13.07;;;1.00;1.00;;;;;;5121010;28;20233;-44
2022/12/11 05:16:46;;;;;;;16.50;13.07;;;1.10;1.00;;;;;;5120960;28;20458;-44
2022/12/11 05:19:12;;;;;;;15.80;13.20;;;1.00;1.00;;;;;;5120449;28;20266;-45
2022/12/11 05:21:37;;;;;;;15.27;12.40;;;1.00;1.00;;;;;;5121078;28;20194;-48
2022/12/11 05:24:03;;;;;;;15.80;12.30;;;1.00;1.00;;;;;;5120268;28;20553;-44
2022/12/11 05:26:29;;;;;;;15.20;12.37;;;1.00;1.00;;;;;;5120227;28;20195;-45
2022/12/11 05:28:55;;;;;;;15.87;13.23;;;1.00;99.90;;;;;;5120448;28;20414;-44
2022/12/11 05:31:23;;;;;;;14.33;12.00;;;1.00;99.90;;;;;;5120232;28;20314;-44
2022/12/11 05:33:49;;;;;;;16.50;12.90;;;0.90;99.90;;;;;;5120515;28;20179;-45
2022/12/11 05:36:20;;;;;;;16.80;11.77;;;0.90;99.90;;;;;;5119372;28;20429;-43
2022/12/11 05:38:46;;;;;;;14.03;11.53;;;0.90;98.40;;;;;;5119225;28;20409;-45
2022/12/11 05:41:14;;;;;;;15.83;12.30;;;0.90;39.70;;;;;;5117784;28;20437;-44
2022/12/11 05:43:41;;;;;;;16.03;12.70;;;0.90;27.10;;;;;;5117040;28;20183;-44
2022/12/11 05:46:12;;;;;;;14.10;11.93;;;0.80;17.80;;;;;;5117876;28;20421;-44
2022/12/11 05:48:38;;;;;;;15.13;12.30;;;0.80;23.90;;;;;;5118514;28;20413;-45
2022/12/11 05:51:05;;;;;;;15.13;12.80;;;0.80;3.80;;;;;;5118066;28;20480;-45
2022/12/11 05:53:31;;;;;;;15.70;12.30;;;0.80;1.00;;;;;;5118748;28;20418;-43
2022/12/11 05:56:09;;;;;;;15.23;12.77;;;0.80;1.00;;;;;;5102270;28;20662;-44
2022/12/11 05:58:35;;;;;;;16.73;13.20;;;0.70;1.00;;;;;;5119099;28;20175;-45
2022/12/11 06:01:01;;;;;;;16.30;13.47;;;0.70;1.00;;;;;;5119438;28;20494;-46
2022/12/11 06:03:27;;;;;;;15.17;12.97;;;0.60;1.00;;;;;;5119412;28;20210;-44
2022/12/11 06:05:53;;;;;;;17.30;12.87;;;0.60;1.00;;;;;;5100803;28;20429;-46
2022/12/11 06:08:19;;;;;;;15.07;12.60;;;0.60;1.00;;;;;;5118908;28;20431;-43
2022/12/11 06:10:48;;;;;;;16.67;12.77;;;0.50;1.00;;;;;;5118919;28;20212;-46
2022/12/11 06:13:20;;;;;;;16.67;13.67;;;0.40;1.00;;;;;;5119241;28;20280;-44
2022/12/11 06:15:45;;;;;;;15.93;12.37;;;0.40;1.00;;;;;;5119732;28;20490;-45
2022/12/11 06:18:11;;;;;;;15.93;12.30;;;0.40;1.00;;;;;;5118741;28;20426;-44
2022/12/11 06:20:37;;;;;;;18.07;13.10;;;0.30;1.00;;;;;;5119748;28;20188;-45
2022/12/11 06:23:03;;;;;;;16.57;12.30;;;0.20;1.00;;;;;;5119499;28;20175;-44
2022/12/11 06:25:28;;;;;;;14.63;12.30;;;0.20;1.00;;;;;;5119440;28;20410;-45
2022/12/11 06:27:54;;;;;;;16.30;12.97;;;0.20;1.00;;;;;;5119194;28;20470;-44
2022/12/11 06:30:20;;;;;;;17.53;13.40;;;0.20;1.00;;;;;;5118432;28;20573;-46
2022/12/11 06:32:46;;;;;;;17.30;12.63;;;0.10;1.00;;;;;;5118588;28;20197;-46
2022/12/11 06:35:12;;;;;;;18.20;14.17;;;0.10;99.90;;;;;;5119269;28;20406;-46
2022/12/11 06:37:39;;;;;;;22.13;16.23;;;0.00;99.90;;;;;;5119372;28;20332;-45
2022/12/11 06:40:06;;;;;;;21.30;17.20;;;0.00;99.90;;;;;;5119019;28;20484;-44
2022/12/11 06:42:31;;;;;;;19.60;15.00;;;-0.10;99.90;;;;;;5100389;28;20433;-46
2022/12/11 06:44:58;;;;;;;22.07;15.30;;;-0.10;99.90;;;;;;5116765;28;20719;-46
2022/12/11 06:47:29;;;;;;;20.07;14.10;;;-0.20;99.90;;;;;;5116822;28;20186;-44
2022/12/11 06:49:55;;;;;;;17.40;12.70;;;-0.20;99.90;;;;;;5117614;28;20417;-46
2022/12/11 06:52:22;;;;;;;19.73;14.80;;;-0.20;99.90;;;;;;5117445;28;20473;-45
2022/12/11 06:54:48;;;;;;;18.30;14.00;;;-0.20;99.90;;;;;;5115051;28;20440;-45
2022/12/11 06:57:14;;;;;;;18.50;14.27;;;-0.30;1.00;;;;;;5113309;28;20425;-46
2022/12/11 06:59:40;;;;;;;17.97;13.50;;;-0.30;1.00;;;;;;5113716;28;20176;-45
2022/12/11 07:02:06;;;;;;;19.37;14.63;;;-0.30;1.00;;;;;;5114331;28;20734;-45
2022/12/11 07:04:31;;;;;;;18.67;14.27;;;-0.30;1.00;;;;;;5115385;28;20172;-45
2022/12/11 07:06:57;;;;;;;16.60;13.57;;;-0.30;1.00;;;;;;5115895;28;20715;-45
2022/12/11 07:09:23;;;;;;;17.53;13.57;;;-0.30;1.00;;;;;;5098007;28;20524;-45
2022/12/11 07:11:52;;;;;;;16.97;13.40;;;-0.30;1.00;;;;;;5116096;28;20207;-45
2022/12/11 07:14:18;;;;;;;15.00;12.23;;;-0.30;1.00;;;;;;5118201;28;20487;-48
2022/12/11 07:16:44;;;;;;;20.10;13.73;;;-0.30;1.00;;;;;;5117418;28;20436;-45
2022/12/11 07:19:10;;;;;;;20.07;14.63;;;-0.30;1.00;;;;;;5118678;28;20406;-42
2022/12/11 07:21:35;;;;;;;15.10;12.00;;;-0.30;1.00;;;;;;5118529;28;20192;-44
2022/12/11 07:24:01;;;;;;;18.17;13.57;;;-0.20;1.00;;;;;;5098708;28;20220;-45
2022/12/11 07:26:27;;;;;;;17.10;13.47;;;-0.20;1.00;;;;;;5116848;28;20188;-44
2022/12/11 07:28:57;;;;;;;16.97;13.07;;;-0.20;1.00;;;;;;5116450;28;20215;-45
2022/12/11 07:31:24;;;;;;;16.70;12.93;;;-0.10;1.00;;;;;;5116885;28;20499;-46
2022/12/11 07:33:53;;;;;;;16.53;13.40;;;-0.10;1.00;;;;;;5117695;28;20418;-43
2022/12/11 07:36:19;;;;;;;19.13;12.97;;;0.00;1.00;;;;;;5117650;28;20804;-43
2022/12/11 07:38:45;;;;;;;18.07;14.10;;;0.00;1.00;;;;;;5115291;28;20449;-45
2022/12/11 07:41:12;;;;;;;16.50;13.30;;;0.10;1.00;;;;;;5116808;28;20183;-45
2022/12/11 07:43:38;;;;;;;17.03;13.53;;;0.20;1.00;;;;;;5117898;28;20183;-44
2022/12/11 07:46:05;;;;;;;19.30;15.07;;;0.20;1.00;;;;;;5095556;28;20437;-45
2022/12/11 07:48:33;;;;;;;17.70;13.73;;;0.20;1.00;;;;;;5104942;28;20291;-44
2022/12/11 07:51:13;;;;;;;16.00;12.87;;;0.30;1.00;;;;;;5097111;28;20485;-45
2022/12/11 07:53:40;;;;;;;16.07;12.20;;;0.40;1.00;;;;;;5097594;28;20402;-46
2022/12/11 07:56:06;;;;;;;18.33;14.57;;;0.40;1.00;;;;;;5097192;28;20422;-45
2022/12/11 07:58:32;;;;;;;18.17;14.10;;;0.50;1.00;;;;;;5096703;28;20484;-43
2022/12/11 08:00:57;;;;;;;17.00;14.17;;;0.60;99.90;;;;;;5096882;28;20434;-44
2022/12/11 08:03:23;;;;;;;19.23;14.20;;;0.70;99.90;;;;;;5096994;28;20504;-47
2022/12/11 08:05:50;;;;;;;16.53;13.70;;;0.90;99.90;;;;;;5096853;28;20185;-44
2022/12/11 08:08:19;;;;;;;20.13;15.17;;;1.00;99.90;;;;;;5079002;28;20430;-44
2022/12/11 08:10:44;;;;;;;18.03;14.73;;;1.20;99.90;;;;;;5095545;28;20466;-45
2022/12/11 08:13:10;;;;;;;20.43;15.57;;;1.50;99.90;;;;;;5095823;28;20473;-45
2022/12/11 08:15:36;;;;;;;16.90;14.20;;;1.80;99.90;;;;;;5078278;28;20465;-46
2022/12/11 08:18:02;;;;;;;16.73;14.40;;;2.30;61.10;;;;;;5098609;28;20495;-44
2022/12/11 08:20:29;;;;;;;18.10;14.30;;;2.90;1.00;;;;;;5098607;28;20418;-45
2022/12/11 08:22:55;;;;;;;18.53;13.60;;;3.50;1.00;;;;;;5098856;28;20418;-44
2022/12/11 08:25:21;;;;;;;17.87;13.57;;;4.10;99.90;;;;;;5098372;28;20885;-46
2022/12/11 08:27:46;;;;;;;17.57;14.13;;;4.50;99.90;;;;;;5099530;28;20651;-44
2022/12/11 08:30:12;;;;;;;17.50;15.43;;;4.90;99.90;;;;;;5099969;28;20178;-45
2022/12/11 08:32:39;;;;;;;16.60;14.17;;;5.20;21.10;;;;;;5097707;28;20184;-46
2022/12/11 08:35:06;;;;;;;16.73;14.23;;;5.20;1.00;;;;;;5099649;28;20471;-45
2022/12/11 08:37:33;;;;;;;16.90;14.50;;;5.10;1.00;;;;;;5099543;28;20418;-45
2022/12/11 08:39:58;;;;;;;16.10;13.83;;;5.00;1.00;;;;;;5080011;28;20410;-47
2022/12/11 08:42:24;;;;;;;16.97;15.10;;;4.90;1.00;;;;;;5099720;28;20490;-47
2022/12/11 08:44:50;;;;;;;17.53;14.70;;;4.70;1.00;;;;;;5099380;28;20184;-44
2022/12/11 08:47:17;;;;;;;17.90;14.20;;;4.60;1.00;;;;;;5098977;28;20578;-45
2022/12/11 08:49:43;;;;;;;15.90;13.00;;;4.50;1.00;;;;;;5100167;28;20414;-44
2022/12/11 08:52:08;;;;;;;17.37;15.10;;;4.40;1.00;;;;;;5096974;28;20461;-46
2022/12/11 08:54:36;;;;;;;16.77;13.50;;;4.40;1.00;;;;;;5097994;28;20184;-44
2022/12/11 08:57:01;;;;;;;15.97;13.57;;;4.30;1.00;;;;;;5096742;28;20170;-43
2022/12/11 08:59:27;;;;;;;15.63;13.90;;;4.30;1.00;;;;;;5096366;28;20704;-45
2022/12/11 09:01:54;;;;;;;14.87;13.13;;;4.30;1.00;;;;;;5096861;28;20191;-45
2022/12/11 09:04:19;;;;;;;17.70;13.97;;;4.30;1.00;;;;;;5099155;28;20516;-46
2022/12/11 09:06:45;;;;;;;15.23;12.90;;;4.30;1.00;;;;;;5081296;28;20427;-43
2022/12/11 09:09:11;;;;;;;15.50;13.77;;;4.30;1.00;;;;;;5099283;28;20176;-48
2022/12/11 09:11:37;;;;;;;14.53;13.10;;;4.30;1.00;;;;;;5098798;28;20204;-45
2022/12/11 09:14:04;;;;;;;15.37;13.07;;;4.30;1.00;;;;;;5099343;28;20562;-47
2022/12/11 09:16:30;;;;;;;14.77;12.80;;;4.30;1.00;;;;;;5080386;28;20425;-48
2022/12/11 09:18:57;;;;;;;15.00;13.10;;;4.30;1.00;;;;;;5080339;28;20702;-46
2022/12/11 09:21:28;;;;;;;15.47;13.83;;;4.30;1.00;;;;;;5079561;28;20760;-45
2022/12/11 09:23:56;;;;;;;15.67;13.87;;;4.30;1.00;;;;;;5095804;28;20702;-48
2022/12/11 09:26:21;;;;;;;17.37;14.20;;;4.30;1.00;;;;;;5096147;28;20800;-44
2022/12/11 09:28:47;;;;;;;18.43;16.43;;;4.30;1.00;;;;;;5097084;28;20406;-45
2022/12/11 09:31:19;;;;;;;19.73;15.13;;;4.30;1.00;;;;;;5097097;28;20196;-48
2022/12/11 09:33:45;;;;;;;18.17;14.50;;;4.20;1.00;;;;;;5097221;28;20241;-46
2022/12/11 09:36:12;;;;;;;16.93;14.40;;;4.20;1.00;;;;;;5096181;28;20471;-46
2022/12/11 09:38:37;;;;;;;16.33;13.43;;;4.20;1.00;;;;;;5079668;28;20426;-45
2022/12/11 09:41:21;;;;;;;15.77;13.20;;;4.20;1.00;;;;;;5080329;28;20483;-43
2022/12/11 09:44:15;;;;;;;15.63;12.80;;;4.20;1.00;;;;;;5099056;28;20451;-46
2022/12/11 09:46:41;;;;;;;13.73;12.10;;;4.20;1.00;;;;;;5079888;28;20431;-45
2022/12/11 09:49:38;;;;;;;13.33;10.70;;;4.30;1.00;;;;;;5098292;28;20885;-46
2022/12/11 09:52:20;;;;;;;15.57;11.53;;;4.30;1.00;;;;;;5096910;28;20567;-46
2022/12/11 09:54:52;;;;;;;15.17;11.07;;;4.40;1.00;;;;;;5078924;28;20448;-44
2022/12/11 09:57:20;;;;;;;15.40;12.27;;;4.50;1.00;;;;;;5079516;28;20509;-44
2022/12/11 09:59:59;;;;;;;12.33;10.73;;;4.50;1.00;;;;;;5078174;28;20411;-47
2022/12/11 10:02:57;;;;;;;13.00;10.60;;;4.60;1.00;;;;;;5096464;28;20689;-45
2022/12/11 10:05:47;;;;;;;12.90;10.70;;;4.70;1.00;;;;;;5073217;28;20868;-47
2022/12/11 10:08:44;;;;;;;14.03;10.77;;;4.70;1.00;;;;;;5095295;28;20947;-46
2022/12/11 10:11:31;;;;;;;14.07;10.70;;;4.80;1.00;;;;;;5095987;28;20519;-46
2022/12/11 10:14:21;;;;;;;11.43;9.20;;;4.90;1.00;;;;;;5095171;28;20742;-46
2022/12/11 10:16:53;;;;;;;10.83;9.03;;;5.00;1.00;;;;;;5079630;28;20488;-45
2022/12/11 10:19:26;;;;;;;12.13;9.93;;;5.10;1.00;;;;;;5077982;28;20394;-46
2022/12/11 10:21:52;;;;;;;11.83;10.53;;;5.20;1.00;;;;;;5095021;28;20871;-44
2022/12/11 10:24:35;;;;;;;11.53;9.73;;;5.30;1.00;;;;;;5096594;28;20410;-47
2022/12/11 10:27:19;;;;;;;11.47;9.43;;;5.40;1.00;;;;;;5096986;28;20418;-45
2022/12/11 10:29:51;;;;;;;11.17;9.33;;;5.60;1.00;;;;;;5100514;28;20410;-46
2022/12/11 10:32:25;;;;;;;13.70;11.23;;;5.70;1.00;;;;;;5105920;28;20500;-44
2022/12/11 10:34:58;;;;;;;13.47;9.30;;;5.90;1.00;;;;;;5099337;28;20409;-46
2022/12/11 10:37:24;;;;;;;11.57;10.00;;;6.00;1.00;;;;;;5095403;28;20413;-45
2022/12/11 10:39:49;;;;;;;11.57;9.27;;;6.10;1.00;;;;;;5116448;28;20402;-47
2022/12/11 10:42:18;;;;;;;10.20;9.10;;;6.20;1.00;;;;;;5116327;28;20180;-45
2022/12/11 10:45:04;;;;;;;11.80;9.33;;;6.30;1.00;;;;;;5116584;28;20191;-44
2022/12/11 10:47:30;;;;;;;11.60;9.37;;;6.40;1.00;;;;;;5116280;28;20532;-46
2022/12/11 10:50:01;;;;;;;11.40;9.63;;;6.50;1.00;;;;;;5116376;28;20422;-46
2022/12/11 10:52:37;;;;;;;10.17;8.43;;;6.60;1.00;;;;;;5081741;28;20497;-46
2022/12/11 10:55:06;;;;;;;10.57;9.43;;;6.70;1.00;;;;;;5088234;28;20415;-46
2022/12/11 10:57:36;;;;;;;10.20;8.60;;;6.80;1.00;;;;;;5102018;28;20434;-46
2022/12/11 11:00:05;;;;;;;12.80;10.07;;;6.90;1.00;;;;;;5078516;28;20424;-45
2022/12/11 11:02:34;;;;;;;12.93;10.50;;;6.90;1.00;;;;;;5076581;28;20449;-45
2022/12/11 11:05:16;;;;;;;10.00;8.97;;;7.00;1.00;;;;;;5096694;28;20414;-48
2022/12/11 11:07:42;;;;;;;12.50;9.60;;;7.00;1.00;;;;;;5079047;28;20437;-45
2022/12/11 11:10:10;;;;;;;12.87;9.93;;;7.00;1.00;;;;;;5096559;28;20411;-47
2022/12/11 11:12:47;;;;;;;11.13;9.50;;;7.10;1.00;;;;;;5097259;28;20872;-45
2022/12/11 11:15:14;;;;;;;11.53;9.60;;;7.10;1.00;;;;;;5096468;28;20430;-46
2022/12/11 11:17:49;;;;;;;12.27;9.57;;;7.10;1.00;;;;;;5095848;28;20422;-45
2022/12/11 11:20:17;;;;;;;12.27;10.07;;;7.20;1.00;;;;;;5078260;28;20474;-46
2022/12/11 11:22:49;;;;;;;12.03;9.87;;;7.20;1.00;;;;;;5077961;28;20499;-45
2022/12/11 11:25:18;;;;;;;11.13;9.97;;;7.30;1.00;;;;;;5096190;28;20476;-47
2022/12/11 11:27:56;;;;;;;11.77;10.10;;;7.30;1.00;;;;;;5099651;28;20441;-44
2022/12/11 11:30:26;;;;;;;12.00;9.73;;;7.30;1.00;;;;;;5095293;28;20423;-47
2022/12/11 11:33:03;;;;;;;9.80;8.80;;;7.40;1.00;;;;;;5094815;28;20422;-46
2022/12/11 11:35:29;;;;;;;11.30;9.60;;;7.40;1.00;;;;;;5076255;28;20402;-45
2022/12/11 11:38:17;;;;;;;11.07;9.57;;;7.40;1.00;;;;;;5092927;28;20744;-45
2022/12/11 11:41:05;;;;;;;11.23;9.10;;;7.40;1.00;;;;;;5093470;28;20402;-44
2022/12/11 11:43:45;;;;;;;11.87;9.70;;;7.50;1.00;;;;;;5092326;28;21115;-45
2022/12/11 11:46:24;;;;;;;11.03;9.73;;;7.50;1.00;;;;;;5092987;28;20403;-47
2022/12/11 11:49:16;;;;;;;11.07;9.93;;;7.50;1.00;;;;;;5093496;28;20406;-47
2022/12/11 11:51:50;;;;;;;11.73;9.90;;;7.50;1.00;;;;;;5047488;28;20477;-45
2022/12/11 11:54:31;;;;;;;10.37;9.27;;;7.50;1.00;;;;;;5077683;28;20449;-46
2022/12/11 11:56:58;;;;;;;11.27;10.17;;;7.40;1.00;;;;;;5094279;28;20544;-46
2022/12/11 11:59:35;;;;;;;12.17;10.87;;;7.40;1.00;;;;;;5095762;28;20767;-45
2022/12/11 12:02:00;;;;;;;13.23;11.87;;;7.30;1.00;;;;;;5095846;28;20437;-43
2022/12/11 12:04:33;;;;;;;13.53;10.80;;;7.20;1.00;;;;;;5096671;28;20859;-45
2022/12/11 12:07:20;;;;;;;13.87;3.40;;;7.10;1.00;;;;;;5077733;28;20657;-53
2022/12/11 12:09:54;;;;;;;11.17;5.97;;;8.20;99.90;;;;;;5095479;28;21022;-53
2022/12/11 12:12:30;;;;;;;7.70;6.10;;;9.60;1.00;;;;;;5095499;28;20542;-54
2022/12/11 12:15:29;;;;;;;5.77;5.17;;;10.40;1.00;;;;;;5076844;28;20472;-52
2022/12/11 12:18:05;;;;;;;5.20;4.60;;;11.20;99.90;;;;;;5073260;28;20464;-54
2022/12/11 12:20:39;;;;;;;6.13;4.80;;;12.10;1.00;;;;;;5096260;28;20414;-44
2022/12/11 12:23:27;;;;;;;8.30;7.50;;;12.70;99.90;;;;;;5078418;28;20421;-45
2022/12/11 12:26:00;;;;;;;10.70;9.63;;;12.80;99.90;;;;;;5095269;28;20418;-48
2022/12/11 12:28:45;;;;;;;10.57;9.40;;;12.40;99.90;;;;;;5094080;28;20423;-46
2022/12/11 12:31:24;;;;;;;9.77;8.80;;;11.70;99.90;;;;;;5093838;28;20558;-45
2022/12/11 12:34:05;;;;;;;10.20;8.90;;;11.10;51.70;;;;;;5093306;28;20465;-45
2022/12/11 12:36:59;;;;;;;10.07;9.07;;;10.60;1.00;;;;;;5075624;28;20517;-45
2022/12/11 12:39:30;;;;;;;8.77;7.33;;;10.20;1.00;;;;;;5076678;28;20410;-45
2022/12/11 12:42:10;;;;;;;5.20;4.43;;;10.00;99.90;;;;;;5077193;28;20427;-47
2022/12/11 12:45:11;;;;;;;7.47;4.53;;;11.40;99.90;;;;;;5094978;28;20692;-44
2022/12/11 12:47:38;;;;;;;10.23;6.67;;;12.30;99.90;;;;;;5054213;28;20491;-44
2022/12/11 12:50:10;;;;;;;10.67;7.97;;;13.00;1.00;;;;;;5093739;28;20418;-42
2022/12/11 12:52:38;;;;;;;10.10;9.10;;;13.10;99.90;;;;;;5094479;28;20485;-42
2022/12/11 12:55:13;;;;;;;10.23;9.00;;;13.00;95.90;;;;;;5095591;28;20407;-44
2022/12/11 12:57:50;;;;;;;7.87;7.07;;;12.80;1.00;;;;;;5094792;28;20528;-45
2022/12/11 13:00:28;;;;;;;8.17;5.30;;;12.80;1.00;;;;;;5095321;28;20759;-43
2022/12/11 13:02:55;;;;;;;7.00;5.97;;;13.20;1.00;;;;;;5099170;28;20894;-44
2022/12/11 13:05:27;;;;;;;9.70;8.17;;;14.00;1.20;;;;;;5080650;28;20747;-43
2022/12/11 13:07:58;;;;;;;8.43;7.50;;;14.00;1.00;;;;;;5079722;28;20756;-42
2022/12/11 13:10:29;;;;;;;9.77;8.87;;;13.70;1.00;;;;;;5097574;28;20768;-42